createdAt,value
2023-10-09T00:02:12.800Z,14.31
2023-10-09T00:04:43.023Z,14.34
2023-10-09T00:07:10.972Z,14.39
2023-10-09T00:09:49.734Z,14.42
2023-10-09T00:12:23.864Z,14.34
2023-10-09T00:14:51.712Z,14.28
2023-10-09T00:17:21.049Z,14.27
2023-10-09T00:19:50.839Z,14.38
2023-10-09T00:22:30.793Z,14.31
2023-10-09T00:25:11.759Z,14.31
2023-10-09T00:27:43.541Z,14.33
2023-10-09T00:30:16.674Z,14.35
2023-10-09T00:32:59.596Z,14.45
2023-10-09T00:35:47.965Z,14.54
2023-10-09T00:38:23.598Z,14.70
2023-10-09T00:41:05.356Z,14.81
2023-10-09T00:43:31.990Z,14.87
2023-10-09T00:46:24.804Z,14.99
2023-10-09T00:48:55.333Z,15.05
2023-10-09T00:51:25.487Z,15.13
2023-10-09T00:53:59.037Z,15.18
2023-10-09T00:56:28.375Z,15.22
2023-10-09T00:59:00.630Z,15.23
2023-10-09T01:01:37.095Z,15.22
2023-10-09T01:04:11.568Z,15.25
2023-10-09T01:06:45.900Z,15.27
2023-10-09T01:09:15.007Z,15.26
2023-10-09T01:12:14.491Z,15.31
2023-10-09T01:14:43.950Z,15.32
2023-10-09T01:17:10.543Z,15.35
2023-10-09T01:19:37.355Z,15.36
2023-10-09T01:22:13.739Z,15.44
2023-10-09T01:24:41.174Z,15.48
2023-10-09T01:27:16.626Z,15.62
2023-10-09T01:29:44.886Z,15.58
2023-10-09T01:32:18.010Z,15.65
2023-10-09T01:34:44.944Z,15.66
2023-10-09T01:37:19.582Z,15.68
2023-10-09T01:39:49.045Z,15.73
2023-10-09T01:42:26.095Z,15.63
2023-10-09T01:44:53.152Z,15.63
2023-10-09T01:47:20.072Z,15.57
2023-10-09T01:49:50.027Z,15.60
2023-10-09T01:52:17.509Z,15.65
2023-10-09T01:54:51.499Z,15.66
2023-10-09T01:57:23.675Z,15.60
2023-10-09T01:59:51.185Z,15.55
2023-10-09T02:02:27.821Z,15.49
2023-10-09T02:04:55.795Z,15.43
2023-10-09T02:07:24.468Z,15.38
2023-10-09T02:09:51.013Z,15.43
2023-10-09T02:12:18.775Z,15.37
2023-10-09T02:14:45.344Z,15.32
2023-10-09T02:17:21.437Z,15.33
2023-10-09T02:19:50.834Z,15.35
2023-10-09T02:22:18.313Z,15.49
2023-10-09T02:24:49.060Z,15.59
2023-10-09T02:27:38.254Z,15.70
2023-10-09T02:30:20.897Z,15.77
2023-10-09T02:32:53.030Z,15.76
2023-10-09T02:35:29.326Z,15.86
2023-10-09T02:37:59.024Z,15.87
2023-10-09T02:40:41.025Z,15.90
2023-10-09T02:43:13.519Z,15.89
2023-10-09T02:45:51.177Z,15.95
2023-10-09T02:48:21.002Z,16.01
2023-10-09T02:50:47.935Z,15.96
2023-10-09T02:53:20.045Z,16.00
2023-10-09T02:56:05.040Z,16.01
2023-10-09T02:58:33.467Z,15.97
2023-10-09T03:01:00.772Z,16.02
2023-10-09T03:03:28.166Z,16.03
2023-10-09T03:05:54.768Z,15.99
2023-10-09T03:08:21.532Z,16.03
2023-10-09T03:10:49.020Z,16.04
2023-10-09T03:13:20.299Z,16.03
2023-10-09T03:15:49.345Z,16.04
2023-10-09T03:18:15.880Z,16.06
2023-10-09T03:20:43.603Z,16.06
2023-10-09T03:23:10.848Z,16.07
2023-10-09T03:25:38.823Z,16.02
2023-10-09T03:28:05.596Z,16.03
2023-10-09T03:30:33.690Z,16.04
2023-10-09T03:33:01.855Z,16.03
2023-10-09T03:35:28.572Z,16.02
2023-10-09T03:38:18.771Z,16.02
2023-10-09T03:40:45.655Z,16.03
2023-10-09T03:43:12.603Z,16.07
2023-10-09T03:45:46.293Z,16.08
2023-10-09T03:48:33.068Z,16.14
2023-10-09T03:51:14.338Z,16.08
2023-10-09T03:53:40.863Z,16.08
2023-10-09T03:56:14.417Z,16.14
2023-10-09T03:58:43.992Z,16.02
2023-10-09T04:01:17.991Z,16.02
2023-10-09T04:03:45.765Z,15.98
2023-10-09T04:06:12.459Z,15.96
2023-10-09T04:08:45.633Z,15.99
2023-10-09T04:11:17.213Z,16.09
2023-10-09T04:13:47.013Z,16.09
2023-10-09T04:16:28.571Z,16.03
2023-10-09T04:18:58.474Z,16.04
2023-10-09T04:21:37.662Z,15.95
2023-10-09T04:24:25.936Z,15.93
2023-10-09T04:26:57.287Z,16.01
2023-10-09T04:29:28.092Z,16.09
2023-10-09T04:32:01.077Z,16.10
2023-10-09T04:34:35.897Z,16.07
2023-10-09T04:37:18.141Z,16.13
2023-10-09T04:40:01.920Z,15.99
2023-10-09T04:42:37.692Z,15.95
2023-10-09T04:45:07.837Z,15.94
2023-10-09T04:47:39.551Z,16.10
2023-10-09T04:50:11.074Z,16.01
2023-10-09T04:52:37.994Z,15.97
2023-10-09T04:55:07.741Z,16.00
2023-10-09T04:57:44.499Z,16.00
2023-10-09T05:00:43.764Z,16.10
2023-10-09T05:03:26.010Z,16.07
2023-10-09T05:05:59.862Z,16.04
2023-10-09T05:08:31.097Z,16.08
2023-10-09T05:10:59.417Z,16.10
2023-10-09T05:13:43.118Z,16.04
2023-10-09T05:16:29.768Z,16.12
2023-10-09T05:18:58.292Z,16.11
2023-10-09T05:21:44.709Z,16.05
2023-10-09T05:24:15.822Z,16.17
2023-10-09T05:26:49.599Z,16.13
2023-10-09T05:29:30.050Z,16.12
2023-10-09T05:32:16.925Z,16.06
2023-10-09T05:35:02.106Z,16.19
2023-10-09T05:37:34.128Z,16.09
2023-10-09T05:40:01.437Z,16.20
2023-10-09T05:42:43.810Z,16.17
2023-10-09T05:45:18.244Z,16.29
2023-10-09T05:48:04.825Z,16.36
2023-10-09T05:50:35.172Z,16.30
2023-10-09T05:53:03.026Z,16.34
2023-10-09T05:55:48.585Z,16.24
2023-10-09T05:58:33.753Z,16.34
2023-10-09T06:01:18.703Z,16.29
2023-10-09T06:04:11.474Z,16.30
2023-10-09T06:06:45.841Z,16.28
2023-10-09T06:09:16.490Z,16.35
2023-10-09T06:11:51.040Z,16.38
2023-10-09T06:14:47.258Z,16.39
2023-10-09T06:17:16.632Z,16.36
2023-10-09T06:19:45.941Z,16.28
2023-10-09T06:22:31.036Z,16.31
2023-10-09T06:24:58.539Z,16.38
2023-10-09T06:27:31.191Z,16.37
2023-10-09T06:30:17.671Z,16.40
2023-10-09T06:33:05.736Z,16.35
2023-10-09T06:35:36.992Z,16.44
2023-10-09T06:38:03.688Z,16.38
2023-10-09T06:40:37.866Z,16.36
2023-10-09T06:43:10.905Z,16.37
2023-10-09T06:45:46.663Z,16.40
2023-10-09T06:48:32.735Z,16.45
2023-10-09T06:51:22.252Z,16.46
2023-10-09T06:53:54.638Z,16.43
2023-10-09T06:56:30.072Z,16.43
2023-10-09T06:59:05.175Z,16.48
2023-10-09T07:01:43.904Z,16.45
2023-10-09T07:04:21.264Z,16.51
2023-10-09T07:06:52.303Z,16.59
2023-10-09T07:09:22.575Z,16.61
2023-10-09T07:11:52.995Z,16.71
2023-10-09T07:14:36.533Z,16.64
2023-10-09T07:17:16.766Z,16.72
2023-10-09T07:19:48.770Z,16.75
2023-10-09T07:22:18.034Z,16.66
2023-10-09T07:24:44.619Z,16.75
2023-10-09T07:27:15.153Z,16.58
2023-10-09T07:30:00.330Z,16.56
2023-10-09T07:32:28.647Z,16.60
2023-10-09T07:34:55.198Z,16.71
2023-10-09T07:37:23.923Z,16.71
2023-10-09T07:39:59.442Z,16.80
2023-10-09T07:42:36.030Z,16.85
2023-10-09T07:45:14.019Z,16.79
2023-10-09T07:47:59.134Z,16.80
2023-10-09T07:50:29.522Z,16.86
2023-10-09T07:53:15.820Z,16.91
2023-10-09T07:55:50.070Z,16.80
2023-10-09T07:58:17.218Z,16.80
2023-10-09T08:01:02.474Z,16.95
2023-10-09T08:03:33.978Z,17.00
2023-10-09T08:06:20.236Z,16.94
2023-10-09T08:09:05.167Z,16.92
2023-10-09T08:11:52.473Z,16.91
2023-10-09T08:14:34.026Z,16.95
2023-10-09T08:17:21.960Z,16.97
2023-10-09T08:19:55.456Z,17.04
2023-10-09T08:22:25.761Z,17.10
2023-10-09T08:24:59.048Z,17.02
2023-10-09T08:27:32.507Z,17.06
2023-10-09T08:30:18.930Z,16.94
2023-10-09T08:35:34.335Z,17.04
2023-10-09T08:38:04.675Z,17.01
2023-10-09T08:40:34.317Z,17.00
2023-10-09T08:43:11.431Z,17.01
2023-10-09T08:45:41.721Z,17.11
2023-10-09T08:48:11.819Z,17.14
2023-10-09T08:50:40.426Z,17.23
2023-10-09T08:53:06.954Z,17.15
2023-10-09T08:55:33.432Z,17.13
2023-10-09T08:58:01.145Z,17.14
2023-10-09T09:00:34.313Z,17.16
2023-10-09T09:03:01.527Z,17.32
2023-10-09T09:05:30.870Z,17.37
2023-10-09T09:08:00.512Z,17.35
2023-10-09T09:10:36.735Z,17.32
2023-10-09T09:13:04.817Z,17.40
2023-10-09T09:15:31.866Z,17.33
2023-10-09T09:18:11.808Z,17.41
2023-10-09T09:20:41.267Z,17.50
2023-10-09T09:23:13.320Z,17.55
2023-10-09T09:25:49.144Z,17.69
2023-10-09T09:28:22.633Z,17.68
2023-10-09T09:30:52.105Z,17.83
2023-10-09T09:33:31.669Z,17.73
2023-10-09T09:36:06.153Z,17.90
2023-10-09T09:38:48.612Z,17.93
2023-10-09T09:41:24.602Z,17.99
2023-10-09T09:44:01.275Z,18.10
2023-10-09T09:46:35.325Z,17.98
2023-10-09T09:49:02.940Z,18.07
2023-10-09T09:51:33.219Z,18.27
2023-10-09T09:53:59.680Z,18.18
2023-10-09T09:56:26.875Z,18.40
2023-10-09T09:58:57.770Z,18.14
2023-10-09T10:01:27.769Z,18.04
2023-10-09T10:04:02.213Z,17.96
2023-10-09T10:06:30.273Z,17.90
2023-10-09T10:08:56.843Z,18.12
2023-10-09T10:11:55.414Z,18.09
2023-10-09T10:14:32.357Z,18.05
2023-10-09T10:17:22.621Z,18.19
2023-10-09T10:20:00.986Z,18.10
2023-10-09T10:22:31.370Z,18.12
2023-10-09T10:25:10.494Z,18.28
2023-10-09T10:28:01.706Z,18.27
2023-10-09T10:30:34.246Z,18.57
2023-10-09T10:33:15.115Z,18.39
2023-10-09T10:35:44.421Z,18.41
2023-10-09T10:38:24.804Z,18.03
2023-10-09T10:40:58.312Z,18.02
2023-10-09T10:43:48.688Z,18.10
2023-10-09T10:46:30.960Z,18.28
2023-10-09T10:49:00.622Z,18.44
2023-10-09T10:51:36.303Z,18.42
2023-10-09T10:54:23.072Z,18.38
2023-10-09T10:56:49.893Z,18.57
2023-10-09T10:59:24.031Z,18.57
2023-10-09T11:02:20.312Z,18.48
2023-10-09T11:04:54.612Z,18.98
2023-10-09T11:07:25.577Z,19.01
2023-10-09T11:10:01.802Z,18.90
2023-10-09T11:12:39.030Z,18.55
2023-10-09T11:15:07.936Z,18.56
2023-10-09T11:17:36.473Z,18.65
2023-10-09T11:20:23.930Z,18.56
2023-10-09T11:23:11.920Z,18.50
2023-10-09T11:25:50.789Z,18.88
2023-10-09T11:28:39.887Z,18.58
2023-10-09T11:31:12.498Z,18.61
2023-10-09T11:33:52.402Z,18.69
2023-10-09T11:36:32.181Z,19.04
2023-10-09T11:39:14.626Z,18.94
2023-10-09T11:41:45.322Z,18.82
2023-10-09T11:44:24.706Z,19.18
2023-10-09T11:47:23.727Z,19.36
2023-10-09T11:50:19.985Z,19.36
2023-10-09T11:53:10.019Z,18.86
2023-10-09T11:55:37.646Z,19.26
2023-10-09T11:58:05.460Z,18.82
2023-10-09T12:00:45.443Z,18.93
2023-10-09T12:03:12.082Z,19.08
2023-10-09T12:05:38.832Z,18.92
2023-10-09T12:08:09.510Z,18.83
2023-10-09T12:10:39.240Z,18.93
2023-10-09T12:13:07.498Z,19.20
2023-10-09T12:15:40.555Z,19.30
2023-10-09T12:18:12.926Z,19.31
2023-10-09T12:20:40.182Z,19.35
2023-10-09T12:23:07.093Z,19.30
2023-10-09T12:25:36.079Z,19.14
2023-10-09T12:28:03.722Z,19.15
2023-10-09T12:30:30.928Z,18.93
2023-10-09T12:32:58.759Z,19.07
2023-10-09T12:35:26.264Z,19.18
2023-10-09T12:37:55.678Z,18.88
2023-10-09T12:40:30.076Z,19.13
2023-10-09T12:42:56.977Z,19.27
2023-10-09T12:45:27.017Z,19.05
2023-10-09T12:48:10.759Z,18.90
2023-10-09T12:50:42.744Z,19.12
2023-10-09T12:53:09.645Z,19.08
2023-10-09T12:55:39.020Z,19.21
2023-10-09T12:58:08.498Z,19.09
2023-10-09T13:00:40.478Z,19.08
2023-10-09T13:03:17.624Z,19.15
2023-10-09T13:05:53.253Z,19.21
2023-10-09T13:08:33.005Z,18.90
2023-10-09T13:11:11.569Z,18.93
2023-10-09T13:13:51.634Z,19.16
2023-10-09T13:16:25.783Z,19.02
2023-10-09T13:19:00.663Z,19.06
2023-10-09T13:21:32.759Z,19.07
2023-10-09T13:24:01.238Z,19.26
2023-10-09T13:26:36.820Z,19.26
2023-10-09T13:29:04.301Z,19.30
2023-10-09T13:31:35.131Z,19.32
2023-10-09T13:34:03.955Z,19.39
2023-10-09T13:36:34.639Z,19.49
2023-10-09T13:39:20.727Z,19.52
2023-10-09T13:41:47.906Z,19.37
2023-10-09T13:44:15.119Z,19.13
2023-10-09T13:46:45.332Z,19.23
2023-10-09T13:49:15.278Z,19.21
2023-10-09T13:51:45.576Z,19.07
2023-10-09T13:54:21.695Z,19.25
2023-10-09T13:56:53.987Z,19.26
2023-10-09T13:59:26.202Z,19.35
2023-10-09T14:01:56.575Z,19.20
2023-10-09T14:04:24.324Z,18.90
2023-10-09T14:06:57.956Z,19.10
2023-10-09T14:09:39.290Z,18.82
2023-10-09T14:12:07.749Z,19.15
2023-10-09T14:14:51.040Z,19.25
2023-10-09T14:17:29.954Z,19.37
2023-10-09T14:20:18.168Z,19.20
2023-10-09T14:22:46.530Z,19.14
2023-10-09T14:25:16.295Z,19.09
2023-10-09T14:27:42.871Z,18.97
2023-10-09T14:30:19.890Z,19.17
2023-10-09T14:32:52.465Z,19.03
2023-10-09T14:35:22.633Z,18.88
2023-10-09T14:37:49.214Z,18.94
2023-10-09T14:40:21.742Z,18.78
2023-10-09T14:42:48.254Z,19.04
2023-10-09T14:45:17.191Z,19.08
2023-10-09T14:47:43.897Z,18.94
2023-10-09T14:50:14.446Z,18.96
2023-10-09T14:52:41.606Z,18.78
2023-10-09T14:55:08.954Z,18.94
2023-10-09T14:57:35.439Z,18.96
2023-10-09T15:00:08.693Z,18.83
2023-10-09T15:02:35.245Z,18.83
2023-10-09T15:05:01.794Z,18.85
2023-10-09T15:07:40.225Z,18.81
2023-10-09T15:10:10.353Z,18.93
2023-10-09T15:12:40.942Z,19.03
2023-10-09T15:15:26.852Z,18.99
2023-10-09T15:17:53.375Z,19.07
2023-10-09T15:20:21.873Z,19.06
2023-10-09T15:22:48.649Z,19.01
2023-10-09T15:25:16.074Z,19.00
2023-10-09T15:27:43.981Z,18.86
2023-10-09T15:30:14.605Z,18.99
2023-10-09T15:32:44.524Z,18.96
2023-10-09T15:35:13.681Z,19.05
2023-10-09T15:37:42.186Z,19.04
2023-10-09T15:40:15.345Z,19.04
2023-10-09T15:42:43.775Z,18.99
2023-10-09T15:45:10.640Z,18.87
2023-10-09T15:47:37.789Z,18.75
2023-10-09T15:50:04.616Z,18.74
2023-10-09T15:52:31.141Z,18.97
2023-10-09T15:54:58.209Z,19.03
2023-10-09T15:57:24.648Z,18.80
2023-10-09T15:59:51.621Z,18.88
2023-10-09T16:02:18.424Z,18.83
2023-10-09T16:04:45.971Z,18.90
2023-10-09T16:07:12.649Z,19.00
2023-10-09T16:09:40.137Z,19.01
2023-10-09T16:12:07.481Z,19.10
2023-10-09T16:14:35.640Z,18.92
2023-10-09T16:17:03.237Z,19.06
2023-10-09T16:19:33.912Z,19.11
2023-10-09T16:22:04.878Z,19.11
2023-10-09T16:24:39.342Z,19.20
2023-10-09T16:27:09.063Z,19.19
2023-10-09T16:29:35.897Z,18.88
2023-10-09T16:32:02.491Z,19.01
2023-10-09T16:34:30.316Z,19.07
2023-10-09T16:36:56.841Z,18.83
2023-10-09T16:39:23.856Z,18.91
2023-10-09T16:41:50.628Z,18.96
2023-10-09T16:44:20.594Z,18.92
2023-10-09T16:46:47.529Z,18.95
2023-10-09T16:49:19.779Z,18.80
2023-10-09T16:51:47.447Z,18.90
2023-10-09T16:54:16.521Z,18.88
2023-10-09T16:56:45.918Z,18.82
2023-10-09T16:59:15.809Z,18.87
2023-10-09T17:01:43.355Z,18.77
2023-10-09T17:04:17.857Z,18.79
2023-10-09T17:06:45.361Z,18.79
2023-10-09T17:09:13.527Z,18.80
2023-10-09T17:11:41.965Z,18.78
2023-10-09T17:14:14.028Z,18.77
2023-10-09T17:16:46.197Z,18.74
2023-10-09T17:19:15.132Z,18.81
2023-10-09T17:21:42.050Z,18.71
2023-10-09T17:24:11.876Z,18.79
2023-10-09T17:26:39.854Z,18.71
2023-10-09T17:29:06.724Z,18.66
2023-10-09T17:31:35.588Z,18.68
2023-10-09T17:34:03.488Z,18.57
2023-10-09T17:36:30.170Z,18.50
2023-10-09T17:39:01.209Z,18.44
2023-10-09T17:41:31.687Z,18.56
2023-10-09T17:44:02.092Z,18.61
2023-10-09T17:46:30.043Z,18.50
2023-10-09T17:48:57.475Z,18.56
2023-10-09T17:51:24.088Z,18.54
2023-10-09T17:53:50.660Z,18.51
2023-10-09T17:56:20.173Z,18.50
2023-10-09T17:58:51.323Z,18.55
2023-10-09T18:01:18.548Z,18.48
2023-10-09T18:03:45.946Z,18.51
2023-10-09T18:06:17.920Z,18.39
2023-10-09T18:08:44.787Z,18.49
2023-10-09T18:11:15.180Z,18.42
2023-10-09T18:13:41.994Z,18.41
2023-10-09T18:16:10.825Z,18.48
2023-10-09T18:18:37.642Z,18.46
2023-10-09T18:21:10.751Z,18.33
2023-10-09T18:23:38.320Z,18.27
2023-10-09T18:26:06.978Z,18.15
2023-10-09T18:28:37.498Z,18.07
2023-10-09T18:31:06.878Z,17.96
2023-10-09T18:33:34.174Z,17.86
2023-10-09T18:36:08.480Z,17.82
2023-10-09T18:38:34.910Z,17.75
2023-10-09T18:41:06.481Z,17.79
2023-10-09T18:43:33.351Z,17.80
2023-10-09T18:46:04.322Z,17.85
2023-10-09T18:48:30.760Z,17.81
2023-10-09T18:50:58.365Z,17.82
2023-10-09T18:53:27.346Z,17.83
2023-10-09T18:55:53.814Z,17.87
2023-10-09T18:58:20.243Z,17.84
2023-10-09T19:00:52.733Z,17.77
2023-10-09T19:03:21.562Z,17.83
2023-10-09T19:05:48.794Z,17.82
2023-10-09T19:08:19.043Z,17.80
2023-10-09T19:10:45.549Z,17.78
2023-10-09T19:13:12.068Z,17.71
2023-10-09T19:15:38.571Z,17.79
2023-10-09T19:18:06.276Z,17.77
2023-10-09T19:20:33.475Z,17.77
2023-10-09T19:23:00.451Z,17.83
2023-10-09T19:25:33.867Z,17.77
2023-10-09T19:28:00.722Z,17.89
2023-10-09T19:30:29.826Z,17.72
2023-10-09T19:32:56.649Z,17.81
2023-10-09T19:35:24.114Z,17.89
2023-10-09T19:37:54.911Z,17.87
2023-10-09T19:40:22.688Z,17.92
2023-10-09T19:42:49.140Z,17.92
2023-10-09T19:45:23.420Z,17.89
2023-10-09T19:47:50.436Z,17.90
2023-10-09T19:50:17.227Z,17.73
2023-10-09T19:52:46.107Z,17.75
2023-10-09T19:55:13.237Z,17.68
2023-10-09T19:57:40.125Z,17.79
2023-10-09T20:00:11.714Z,17.72
2023-10-09T20:02:39.805Z,17.69
2023-10-09T20:05:07.234Z,17.62
2023-10-09T20:07:34.106Z,17.55
2023-10-09T20:10:02.514Z,17.50
2023-10-09T20:12:30.932Z,17.49
2023-10-09T20:14:57.979Z,17.45
2023-10-09T20:17:25.372Z,17.42
2023-10-09T20:19:54.029Z,17.35
2023-10-09T20:22:21.256Z,17.44
2023-10-09T20:24:47.761Z,17.45
2023-10-09T20:27:18.770Z,17.42
2023-10-09T20:29:47.480Z,17.40
2023-10-09T20:32:17.128Z,17.37
2023-10-09T20:34:45.094Z,17.20
2023-10-09T20:37:13.449Z,17.29
2023-10-09T20:39:41.804Z,17.37
2023-10-09T20:42:08.273Z,17.33
2023-10-09T20:44:36.423Z,17.38
2023-10-09T20:47:04.098Z,17.39
2023-10-09T20:49:32.822Z,17.38
2023-10-09T20:51:59.394Z,17.34
2023-10-09T20:54:26.428Z,17.43
2023-10-09T20:56:53.005Z,17.35
2023-10-09T20:59:19.774Z,17.32
2023-10-09T21:01:46.598Z,17.27
2023-10-09T21:04:13.275Z,17.24
2023-10-09T21:06:39.809Z,17.15
2023-10-09T21:09:08.122Z,17.16
2023-10-09T21:11:34.829Z,17.11
2023-10-09T21:14:01.396Z,17.14
2023-10-09T21:16:27.955Z,17.13
2023-10-09T21:18:56.835Z,17.20
2023-10-09T21:21:24.617Z,17.24
2023-10-09T21:23:51.096Z,17.18
2023-10-09T21:26:23.366Z,17.15
2023-10-09T21:28:51.815Z,17.17
2023-10-09T21:31:19.550Z,17.10
2023-10-09T21:33:47.983Z,17.07
2023-10-09T21:36:14.967Z,17.14
2023-10-09T21:38:42.080Z,17.08
2023-10-09T21:41:17.863Z,17.13
2023-10-09T21:43:45.743Z,17.06
2023-10-09T21:46:13.215Z,17.05
2023-10-09T21:48:39.741Z,16.97
2023-10-09T21:51:10.126Z,17.05
2023-10-09T21:53:37.115Z,17.11
2023-10-09T21:56:08.552Z,17.11
2023-10-09T21:58:35.492Z,17.16
2023-10-09T22:01:08.943Z,17.08
2023-10-09T22:03:36.972Z,17.05
2023-10-09T22:06:05.468Z,17.04
2023-10-09T22:08:34.234Z,17.07
2023-10-09T22:11:02.727Z,17.15
2023-10-09T22:13:29.335Z,17.15
2023-10-09T22:15:55.859Z,17.12
2023-10-09T22:18:22.398Z,16.95
2023-10-09T22:20:50.011Z,16.92
2023-10-09T22:23:20.441Z,16.89
2023-10-09T22:26:01.330Z,17.02
2023-10-09T22:28:29.305Z,17.07
2023-10-09T22:30:57.210Z,17.13
2023-10-09T22:33:27.015Z,17.13
2023-10-09T22:35:54.334Z,17.15
2023-10-09T22:38:22.039Z,17.13
2023-10-09T22:40:55.183Z,17.04
2023-10-09T22:43:24.651Z,17.04
2023-10-09T22:45:52.097Z,16.87
2023-10-09T22:48:19.929Z,16.95
2023-10-09T22:50:47.261Z,16.92
2023-10-09T22:53:24.032Z,16.88
2023-10-09T22:55:55.113Z,16.81
2023-10-09T22:58:29.208Z,16.89
2023-10-09T23:00:59.682Z,16.92
2023-10-09T23:03:29.891Z,16.88
2023-10-09T23:06:10.273Z,16.89
2023-10-09T23:08:37.281Z,16.81
2023-10-09T23:11:09.904Z,16.81
2023-10-09T23:13:39.373Z,16.89
2023-10-09T23:16:09.089Z,16.81
2023-10-09T23:18:55.867Z,16.79
2023-10-09T23:21:23.724Z,16.81
2023-10-09T23:23:51.946Z,16.83
2023-10-09T23:26:29.451Z,16.85
2023-10-09T23:28:56.089Z,16.88
2023-10-09T23:31:47.796Z,16.74
2023-10-09T23:34:20.645Z,16.77
2023-10-09T23:36:56.109Z,16.73
2023-10-09T23:39:53.785Z,16.72
2023-10-09T23:42:27.292Z,16.50
2023-10-09T23:44:54.346Z,16.56
2023-10-09T23:47:27.436Z,16.54
2023-10-09T23:49:57.417Z,16.60
2023-10-09T23:52:24.985Z,16.55
2023-10-09T23:55:01.670Z,16.53
2023-10-09T23:57:30.023Z,16.53
